»·PEaware :: AAL250 KDFW-KIAH

AAL250 :: KDFW-KIAH

FLIGHT INFORMATION

Flight Status: Arrived
Operator:
American Airlines
More flights by this operator :: More flights under this callsign
Pilot: Anonymous 13363 (13363)
Aircraft: BOEING 737-800
(B738)
More flights by this aircraft type
Origin: KDFW Dallas-Ft Worth Intl
United States
Destination: KIAH G Bush Intercontinental/Houst
United States
More flights between these airports :: More routes between these airports
Route: JPOOL9 TTT BILEE BAZBL RIICE7
File this flight plan on PilotEdge
Remarks: twitch.tv / ajonesieee
Altitude:
(Current/Filed)
29,000ft
Speed:
(Current/Filed)
440kts
Departed: 11-May-17 10:34 PM
Arrived: 11-May-17 11:16 PM
Distance/Time
Traveled:
195nm/0:42
Distance/Time
To Go:
Arrived

Flight Plot

Page will automatically refresh every two minutes.

Flight plan parsing failed; only flown route is shown


Map Options




Map Legend


Flown Route
Filed Route
Departure Airport
Arrival Airport
Navaid (VOR, NDB)
Fix

Horizontal Profiles

Position Reports

Time Latitude Longitude Heading Altitude Ground
Speed
11-May-17 22:32 32.893759 -97.031973 142 615ft 10kts
11-May-17 22:33 32.890638 -97.031977 175 615ft 7kts
11-May-17 22:34 32.886007 -97.032017 181 615ft 26kts
11-May-17 22:35 32.879946 -97.030028 0 615ft 5kts
11-May-17 22:36 32.898148 -97.029511 0 1178ft 173kts
11-May-17 22:37 32.939796 -96.988649 79 3666ft 305kts
11-May-17 22:38 32.898115 -96.914438 165 8789ft 303kts
11-May-17 22:39 32.813084 -96.925968 196 12196ft 344kts
11-May-17 22:40 32.719477 -96.949706 197 16591ft 355kts
11-May-17 22:41 32.622850 -96.974204 198 20315ft 372kts
11-May-17 22:42 32.521429 -96.999808 199 23784ft 384kts
11-May-17 22:43 32.419628 -97.025331 200 26988ft 389kts
11-May-17 22:44 32.305315 -97.054182 198 27235ft 471kts
11-May-17 22:45 32.177760 -97.062269 189 28962ft 458kts
11-May-17 22:46 32.051726 -97.066390 189 28966ft 459kts
11-May-17 22:47 31.937317 -97.069973 189 28966ft 459kts
11-May-17 22:48 31.822355 -97.073555 189 28966ft 459kts
11-May-17 22:49 31.703320 -97.077255 189 28915ft 458kts
11-May-17 22:50 31.576880 -97.079757 181 28891ft 460kts
11-May-17 22:51 31.463223 -97.003623 143 28911ft 499kts
11-May-17 22:52 31.364685 -96.892032 141 28914ft 499kts
11-May-17 22:53 31.266339 -96.779602 141 28925ft 499kts
11-May-17 22:54 31.170652 -96.670459 141 27625ft 464kts
11-May-17 22:55 31.083637 -96.571545 141 25652ft 423kts
11-May-17 22:56 30.997131 -96.473557 140 23707ft 432kts
11-May-17 22:57 30.913736 -96.379209 140 21832ft 419kts
11-May-17 22:58 30.866759 -96.326186 140 20768ft 411kts
11-May-17 22:59 30.793094 -96.243206 140 19112ft 401kts
11-May-17 23:00 30.715197 -96.155479 140 17386ft 387kts
11-May-17 23:01 30.639734 -96.071042 140 15739ft 375kts
11-May-17 23:02 30.566594 -95.989231 139 14099ft 365kts
11-May-17 23:03 30.493763 -95.911235 153 12774ft 348kts
11-May-17 23:04 30.409887 -95.861572 129 12574ft 359kts
11-May-17 23:05 30.354889 -95.767513 135 12390ft 356kts
11-May-17 23:06 30.285226 -95.687881 140 12205ft 353kts
11-May-17 23:07 30.213072 -95.611763 140 12018ft 351kts
11-May-17 23:08 30.142283 -95.537942 141 10666ft 322kts
11-May-17 23:09 30.082804 -95.470401 119 8016ft 300kts
11-May-17 23:10 30.074275 -95.378159 92 5329ft 293kts
11-May-17 23:11 30.073249 -95.290008 92 3952ft 275kts
11-May-17 23:12 30.072730 -95.206063 92 2845ft 251kts
11-May-17 23:13 30.040130 -95.152829 169 2420ft 219kts
11-May-17 23:14 29.982220 -95.164337 212 2006ft 201kts
11-May-17 23:15 29.976490 -95.216452 276 1867ft 170kts
11-May-17 23:16 29.977646 -95.265084 268 782ft 147kts
11-May-17 23:17 29.977619 -95.311033 270 112ft 137kts
11-May-17 23:18 29.977863 -95.327845 282 105ft 19kts
11-May-17 23:19 29.981527 -95.330223 358 106ft 25kts
11-May-17 23:20 29.982308 -95.335466 270 106ft 23kts
11-May-17 23:21 29.983004 -95.342486 270 106ft 24kts
11-May-17 23:22 29.983938 -95.350049 292 105ft 25kts
11-May-17 23:23 29.985271 -95.350884 0 106ft 0kts
11-May-17 23:24 29.985271 -95.350884 0 106ft 0kts
11-May-17 23:25 29.985271 -95.350884 0 106ft 0kts
11-May-17 23:26 29.985271 -95.350884 0 106ft 0kts
11-May-17 23:27 29.985271 -95.350884 0 106ft 0kts
11-May-17 23:28 29.985271 -95.350884 0 106ft 0kts
11-May-17 23:29 29.985271 -95.350884 0 106ft 0kts
11-May-17 23:30 29.985271 -95.350884 0 106ft 0kts
11-May-17 23:31 29.985271 -95.350884 0 106ft 0kts
11-May-17 23:32 29.985271 -95.350884 0 106ft 0kts

Navigation Log

Ident Type
Flight plan parsing failed, navigation log unavailable